Time;durP1;ratioP1;P1;durP2;ratioP2;P2;SDS_P1;SDS_P2;PMS_P1;PMS_P2;Temp;Humidity;BMP_temperature;BMP_pressure;BME280_temperature;BME280_humidity;BME280_pressure;Samples;Min_cycle;Max_cycle;Signal;HPM_P1;HPM_P2
2022/05/23 00:02:09;;;;;;;4.82;2.00;;;13.80;99.90;;;;;;5048459;28;20075;-76
2022/05/23 00:04:35;;;;;;;3.78;2.10;;;13.80;99.90;;;;;;5052845;28;20090;-77
2022/05/23 00:07:02;;;;;;;5.93;1.98;;;13.80;99.90;;;;;;5050654;28;20685;-77
2022/05/23 00:09:29;;;;;;;3.00;1.67;;;13.80;99.90;;;;;;5047155;28;20071;-77
2022/05/23 00:11:55;;;;;;;3.47;2.00;;;13.80;99.90;;;;;;5054817;28;20044;-77
2022/05/23 00:14:20;;;;;;;6.07;2.13;;;13.80;99.90;;;;;;5056191;28;20512;-77
2022/05/23 00:16:48;;;;;;;3.25;2.03;;;13.80;99.90;;;;;;5056269;28;20041;-77
2022/05/23 00:19:15;;;;;;;4.13;1.80;;;13.80;99.90;;;;;;5064241;28;20082;-76
2022/05/23 00:21:42;;;;;;;4.20;2.05;;;13.80;99.90;;;;;;5053829;28;20428;-77
2022/05/23 00:24:09;;;;;;;6.45;2.10;;;13.80;99.90;;;;;;5056444;28;20478;-77
2022/05/23 00:26:35;;;;;;;4.38;2.08;;;13.70;99.90;;;;;;5055836;28;20112;-77
2022/05/23 00:29:01;;;;;;;4.70;2.00;;;13.70;99.90;;;;;;5056478;28;20040;-77
2022/05/23 00:31:26;;;;;;;4.65;2.10;;;13.70;99.90;;;;;;5050733;28;20482;-77
2022/05/23 00:36:36;;;;;;;3.53;2.10;;;13.70;99.90;;;;;;5051371;28;20044;-77
2022/05/23 00:39:03;;;;;;;2.30;1.60;;;13.60;99.90;;;;;;5054667;28;20041;-77
2022/05/23 00:44:23;;;;;;;;;;;13.50;99.90;;;;;;5056083;28;20072;-77
2022/05/23 00:46:50;;;;;;;5.82;1.90;;;13.50;99.90;;;;;;5056200;28;19977;-77
2022/05/23 00:49:20;;;;;;;3.70;2.22;;;13.40;99.90;;;;;;5031041;28;20123;-77
2022/05/23 00:51:46;;;;;;;3.28;2.00;;;13.40;99.90;;;;;;5037246;28;20058;-77
2022/05/23 00:54:12;;;;;;;4.05;2.00;;;13.30;99.90;;;;;;5055303;28;20051;-77
2022/05/23 00:56:43;;;;;;;4.13;2.20;;;13.30;99.90;;;;;;5046836;28;20090;-77
2022/05/23 00:59:10;;;;;;;4.10;2.72;;;13.20;99.90;;;;;;5051370;28;20076;-77
2022/05/23 01:01:37;;;;;;;5.95;2.42;;;13.20;99.90;;;;;;5036861;28;20527;-77
2022/05/23 01:04:05;;;;;;;4.80;2.10;;;13.10;99.90;;;;;;5054786;28;20055;-77
2022/05/23 01:06:31;;;;;;;5.43;2.33;;;13.10;99.90;;;;;;5055911;28;20047;-77
2022/05/23 01:08:57;;;;;;;2.55;2.00;;;13.00;99.90;;;;;;5058697;28;20123;-77
2022/05/23 01:11:23;;;;;;;3.30;2.22;;;13.00;99.90;;;;;;5057741;28;20396;-77
2022/05/23 01:13:49;;;;;;;5.60;2.65;;;13.00;99.90;;;;;;5053707;28;20488;-77
2022/05/23 01:16:15;;;;;;;7.15;2.72;;;12.90;99.90;;;;;;5032616;28;20048;-77
2022/05/23 01:18:40;;;;;;;4.57;2.75;;;12.90;99.90;;;;;;5047950;28;20106;-77
2022/05/23 01:21:11;;;;;;;4.32;2.83;;;12.80;99.90;;;;;;5047593;28;20043;-77
2022/05/23 01:23:42;;;;;;;6.35;2.85;;;12.80;99.90;;;;;;5052599;28;20040;-77
2022/05/23 01:26:08;;;;;;;5.80;2.78;;;12.70;99.90;;;;;;5054108;28;20662;-77
2022/05/23 01:28:37;;;;;;;3.00;1.85;;;12.60;99.90;;;;;;5048234;28;20041;-77
2022/05/23 01:31:04;;;;;;;3.40;2.47;;;12.60;99.90;;;;;;5050713;28;20795;-77
2022/05/23 01:33:30;;;;;;;3.38;2.53;;;12.60;99.90;;;;;;5052269;28;20052;-77
2022/05/23 01:35:57;;;;;;;4.75;2.90;;;12.60;99.90;;;;;;5038013;28;20115;-77
2022/05/23 01:38:24;;;;;;;3.28;2.42;;;12.60;99.90;;;;;;5047465;28;20132;-77
2022/05/23 01:40:49;;;;;;;5.38;2.50;;;12.60;99.90;;;;;;5047383;28;20075;-77
2022/05/23 01:43:15;;;;;;;4.50;2.50;;;12.60;99.90;;;;;;5068989;28;20470;-77
2022/05/23 01:45:41;;;;;;;4.90;2.92;;;12.60;99.90;;;;;;5054277;28;20574;-77
2022/05/23 01:48:07;;;;;;;6.72;3.28;;;12.50;99.90;;;;;;5068940;28;20119;-77
2022/05/23 01:50:34;;;;;;;5.53;3.00;;;12.50;99.90;;;;;;5053252;28;20033;-77
2022/05/23 01:52:59;;;;;;;5.20;3.00;;;12.50;99.90;;;;;;5050418;28;20040;-77
2022/05/23 01:55:25;;;;;;;4.68;2.83;;;12.50;99.90;;;;;;5054981;28;20032;-77
2022/05/23 01:57:51;;;;;;;4.45;3.47;;;12.50;99.90;;;;;;5035832;28;20032;-77
2022/05/23 02:03:03;;;;;;;3.85;3.22;;;12.50;99.90;;;;;;5071845;28;20040;-77
2022/05/23 02:05:28;;;;;;;3.67;2.95;;;12.60;99.90;;;;;;5051686;28;20093;-77
2022/05/23 02:07:55;;;;;;;4.13;3.00;;;12.60;99.90;;;;;;5053239;28;20044;-77
2022/05/23 02:10:21;;;;;;;6.63;3.05;;;12.70;99.90;;;;;;5051781;28;20051;-77
2022/05/23 02:12:47;;;;;;;4.55;2.90;;;12.60;99.90;;;;;;5052250;28;20025;-77
2022/05/23 02:15:13;;;;;;;5.53;3.60;;;12.70;99.90;;;;;;5050937;28;20035;-77
2022/05/23 02:17:39;;;;;;;3.92;3.00;;;12.70;99.90;;;;;;5052262;28;20049;-77
2022/05/23 02:20:07;;;;;;;5.00;3.35;;;12.80;99.90;;;;;;5048808;28;20044;-77
2022/05/23 02:22:33;;;;;;;4.75;3.28;;;12.80;99.90;;;;;;5047105;28;20039;-77
2022/05/23 02:24:59;;;;;;;5.10;3.40;;;12.80;99.90;;;;;;5041149;28;20141;-77
2022/05/23 02:27:24;;;;;;;5.70;3.53;;;12.80;99.90;;;;;;5052476;28;20047;-77
2022/05/23 02:29:50;;;;;;;5.50;3.60;;;12.80;99.90;;;;;;5047042;28;20040;-77
2022/05/23 02:32:16;;;;;;;6.20;3.20;;;12.80;99.90;;;;;;5041779;28;20045;-78
2022/05/23 02:34:42;;;;;;;6.25;3.40;;;12.80;99.90;;;;;;5043493;28;20047;-77
2022/05/23 02:37:08;;;;;;;5.13;3.50;;;12.80;99.90;;;;;;5069754;28;20040;-78
2022/05/23 02:39:34;;;;;;;3.83;3.05;;;12.70;99.90;;;;;;5052118;28;20091;-77
2022/05/23 02:42:01;;;;;;;5.57;3.65;;;12.70;99.90;;;;;;5050842;28;20127;-77
2022/05/23 02:44:26;;;;;;;3.40;3.10;;;12.80;99.90;;;;;;5050548;28;20063;-77
2022/05/23 02:46:52;;;;;;;3.92;3.53;;;12.80;99.90;;;;;;5032576;28;20060;-77
2022/05/23 02:49:18;;;;;;;6.80;3.58;;;12.80;99.90;;;;;;5051443;28;20543;-77
2022/05/23 02:51:43;;;;;;;4.20;3.72;;;12.80;99.90;;;;;;5021639;28;20524;-77
2022/05/23 02:54:09;;;;;;;4.07;3.38;;;12.80;99.90;;;;;;5050059;28;20044;-77
2022/05/23 02:56:36;;;;;;;4.53;4.07;;;12.80;99.90;;;;;;5050631;28;20378;-77
2022/05/23 02:59:02;;;;;;;7.15;4.10;;;12.80;99.90;;;;;;5049258;28;20549;-77
2022/05/23 03:01:27;;;;;;;5.40;4.13;;;12.70;99.90;;;;;;5027750;28;20097;-77
2022/05/23 03:03:53;;;;;;;4.82;4.00;;;12.80;99.90;;;;;;5040248;28;20040;-77
2022/05/23 03:06:19;;;;;;;5.63;3.67;;;12.80;99.90;;;;;;5072421;28;20529;-77
2022/05/23 03:08:44;;;;;;;4.85;3.88;;;12.70;99.90;;;;;;5053204;28;20040;-77
2022/05/23 03:11:10;;;;;;;5.22;4.50;;;12.70;99.90;;;;;;5052919;28;20087;-77
2022/05/23 03:13:36;;;;;;;9.95;4.40;;;12.80;99.90;;;;;;5039110;28;20045;-78
2022/05/23 03:16:10;;;;;;;5.75;4.55;;;12.80;99.90;;;;;;5046018;28;20032;-78
2022/05/23 03:18:36;;;;;;;4.75;4.30;;;12.80;99.90;;;;;;5043350;28;20044;-77
2022/05/23 03:21:09;;;;;;;4.78;4.28;;;12.80;99.90;;;;;;5049805;28;20048;-77
2022/05/23 03:29:09;;;;;;;5.25;4.28;;;12.60;99.90;;;;;;5056430;28;20045;-77
2022/05/23 03:31:35;;;;;;;4.32;3.92;;;12.70;99.90;;;;;;5045795;28;20051;-77
2022/05/23 03:34:01;;;;;;;5.43;4.13;;;12.60;99.90;;;;;;5036679;28;20048;-77
2022/05/23 03:36:26;;;;;;;6.55;4.05;;;12.60;99.90;;;;;;5051269;28;20037;-77
2022/05/23 03:38:52;;;;;;;5.82;4.00;;;12.60;99.90;;;;;;5052532;28;20478;-77
2022/05/23 03:41:18;;;;;;;6.55;4.07;;;12.60;99.90;;;;;;5052466;28;20139;-77
2022/05/23 03:43:43;;;;;;;4.38;3.75;;;12.60;99.90;;;;;;5052823;28;20037;-77
2022/05/23 03:46:12;;;;;;;8.15;3.80;;;12.60;99.90;;;;;;5050169;28;20048;-78
2022/05/23 03:48:38;;;;;;;5.03;3.88;;;12.60;99.90;;;;;;5059712;28;20049;-77
2022/05/23 03:51:05;;;;;;;7.25;4.30;;;12.60;99.90;;;;;;5052685;28;20058;-77
2022/05/23 03:53:31;;;;;;;5.60;3.85;;;12.60;99.90;;;;;;5049553;28;20037;-77
2022/05/23 03:55:57;;;;;;;6.05;4.43;;;12.70;99.90;;;;;;5049136;28;20113;-78
2022/05/23 03:58:25;;;;;;;5.88;4.00;;;12.70;99.90;;;;;;5052158;28;20054;-78
2022/05/23 04:00:51;;;;;;;5.80;4.18;;;12.70;99.90;;;;;;5022073;28;20051;-78
2022/05/23 04:03:20;;;;;;;4.88;4.15;;;12.70;99.90;;;;;;5052648;28;20044;-78
2022/05/23 04:05:46;;;;;;;6.20;4.30;;;12.70;99.90;;;;;;5050479;28;20048;-77
2022/05/23 04:08:12;;;;;;;6.10;4.45;;;12.70;99.90;;;;;;5050337;28;20105;-78
2022/05/23 04:10:39;;;;;;;5.78;4.20;;;12.80;99.90;;;;;;5052157;28;20506;-77
2022/05/23 04:13:05;;;;;;;8.27;4.68;;;12.70;99.90;;;;;;5036171;28;20045;-78
2022/05/23 04:15:31;;;;;;;5.85;4.28;;;12.70;99.90;;;;;;5052472;28;20522;-77
2022/05/23 04:17:57;;;;;;;4.95;4.32;;;12.80;99.90;;;;;;5051675;28;20604;-77
2022/05/23 04:20:23;;;;;;;6.25;4.43;;;12.80;99.90;;;;;;5036456;28;20037;-77
2022/05/23 04:22:49;;;;;;;4.43;4.03;;;12.80;99.90;;;;;;5034511;28;20087;-77
2022/05/23 04:25:14;;;;;;;4.78;4.10;;;12.80;99.90;;;;;;5050749;28;20037;-77
2022/05/23 04:27:40;;;;;;;6.57;3.80;;;12.90;99.90;;;;;;5050024;28;20044;-77
2022/05/23 04:30:08;;;;;;;5.30;4.13;;;12.90;99.90;;;;;;5048723;28;20067;-77
2022/05/23 04:35:20;;;;;;;6.03;4.47;;;12.90;99.90;;;;;;5040695;28;20040;-77
2022/05/23 04:37:51;;;;;;;5.85;5.25;;;12.90;99.90;;;;;;5034319;28;20375;-77
2022/05/23 04:40:26;;;;;;;5.20;4.70;;;12.90;99.90;;;;;;5046514;28;20055;-77
2022/05/23 04:42:51;;;;;;;5.25;4.38;;;13.00;99.90;;;;;;5048029;28;20048;-77
2022/05/23 04:45:18;;;;;;;6.43;4.63;;;13.00;99.90;;;;;;5050708;28;20040;-77
2022/05/23 04:50:28;;;;;;;5.43;4.40;;;13.10;99.90;;;;;;5051567;28;20048;-77
2022/05/23 04:52:56;;;;;;;6.22;4.97;;;13.10;99.90;;;;;;5048816;28;20040;-77
2022/05/23 04:55:21;;;;;;;5.00;4.50;;;13.20;99.90;;;;;;5046039;28;20094;-77
2022/05/23 04:57:47;;;;;;;7.10;5.13;;;13.30;99.90;;;;;;5044376;28;20482;-77
2022/05/23 05:00:18;;;;;;;6.28;4.90;;;13.30;99.90;;;;;;5048207;28;20033;-78
2022/05/23 05:02:45;;;;;;;5.90;4.32;;;13.40;99.90;;;;;;5039062;28;20029;-78
2022/05/23 05:05:11;;;;;;;5.93;4.75;;;13.50;99.90;;;;;;5053343;28;20055;-77
2022/05/23 05:07:37;;;;;;;6.43;4.22;;;13.70;99.90;;;;;;5056143;28;20049;-77
2022/05/23 05:10:04;;;;;;;6.82;5.30;;;13.80;99.90;;;;;;5056144;28;20162;-77
2022/05/23 05:12:29;;;;;;;5.03;4.63;;;13.90;99.90;;;;;;5056112;28;20051;-77
2022/05/23 05:14:55;;;;;;;8.38;4.93;;;14.00;99.90;;;;;;5059561;28;20119;-77
2022/05/23 05:17:21;;;;;;;6.95;4.68;;;14.10;99.90;;;;;;5056182;28;20048;-77
2022/05/23 05:19:47;;;;;;;4.85;4.43;;;14.30;99.90;;;;;;5054203;28;20520;-77
2022/05/23 05:22:13;;;;;;;8.25;4.45;;;14.30;99.90;;;;;;5059243;28;20048;-77
2022/05/23 05:24:39;;;;;;;6.43;4.20;;;14.40;99.90;;;;;;5027283;28;20650;-77
2022/05/23 05:27:04;;;;;;;6.65;4.30;;;14.40;99.90;;;;;;5053575;28;20068;-77
2022/05/23 05:29:30;;;;;;;5.38;4.63;;;14.50;99.90;;;;;;5063839;28;20036;-78
2022/05/23 05:32:32;;;;;;;7.22;4.40;;;14.60;99.90;;;;;;5051684;28;20052;-78
2022/05/23 05:35:04;;;;;;;6.43;4.68;;;14.80;99.90;;;;;;5032511;28;20059;-77
2022/05/23 05:37:31;;;;;;;;;;;14.80;99.90;;;;;;5060298;28;20037;-78
2022/05/23 05:40:01;;;;;;;6.15;4.15;;;15.00;99.90;;;;;;5055746;28;19920;-77
2022/05/23 05:42:32;;;;;;;6.68;4.47;;;15.10;99.90;;;;;;5038800;28;20502;-77
2022/05/23 05:45:11;;;;;;;6.20;4.15;;;15.30;99.90;;;;;;5055667;28;20036;-77
2022/05/23 05:47:39;;;;;;;4.35;3.95;;;15.50;99.90;;;;;;5054185;28;20056;-78
2022/05/23 05:50:15;;;;;;;8.10;4.05;;;15.70;99.90;;;;;;5055530;28;20040;-78
2022/05/23 05:52:41;;;;;;;6.18;4.50;;;16.40;99.90;;;;;;5038875;28;20067;-78
2022/05/23 05:55:08;;;;;;;7.40;4.30;;;16.90;99.90;;;;;;5056674;28;20127;-77
2022/05/23 05:57:34;;;;;;;6.35;4.10;;;17.30;99.90;;;;;;5038581;28;20032;-78
2022/05/23 06:00:00;;;;;;;7.88;4.03;;;17.10;99.90;;;;;;5055427;28;20044;-78
2022/05/23 06:02:26;;;;;;;6.03;4.38;;;17.20;99.90;;;;;;5053432;28;20055;-78
2022/05/23 06:04:51;;;;;;;6.88;4.25;;;17.10;99.90;;;;;;5036067;28;20593;-78
2022/05/23 06:12:53;;;;;;;6.85;3.92;;;19.20;99.90;;;;;;5066591;28;20049;-78
2022/05/23 06:15:18;;;;;;;6.25;3.90;;;20.20;97.80;;;;;;5053220;28;20040;-78
2022/05/23 06:17:44;;;;;;;4.72;3.88;;;20.90;96.40;;;;;;5063969;28;20041;-78
2022/05/23 06:20:12;;;;;;;6.05;3.60;;;21.00;94.00;;;;;;5035989;28;20379;-77
2022/05/23 06:22:38;;;;;;;4.63;3.50;;;21.20;94.40;;;;;;5048600;28;20045;-78
2022/05/23 06:25:05;;;;;;;6.05;3.90;;;21.80;94.00;;;;;;5051421;28;20043;-78
2022/05/23 06:27:31;;;;;;;6.18;3.50;;;22.40;94.10;;;;;;5052404;28;20032;-78
2022/05/23 06:29:56;;;;;;;4.82;3.80;;;23.00;91.80;;;;;;5051697;28;20131;-79
2022/05/23 06:32:22;;;;;;;6.43;4.00;;;22.70;90.90;;;;;;5050926;28;20047;-78
2022/05/23 06:34:48;;;;;;;5.78;3.90;;;22.60;91.60;;;;;;5049114;28;20037;-78
2022/05/23 06:37:13;;;;;;;6.43;4.05;;;22.60;91.70;;;;;;5036156;28;20041;-79
2022/05/23 06:39:39;;;;;;;4.50;3.90;;;22.10;90.10;;;;;;5050535;28;20051;-78
2022/05/23 06:42:05;;;;;;;7.05;3.72;;;21.90;90.70;;;;;;5033823;28;20135;-78
2022/05/23 06:44:31;;;;;;;5.95;3.97;;;21.40;92.00;;;;;;5049611;28;20398;-78
2022/05/23 06:46:57;;;;;;;6.65;4.45;;;21.20;93.00;;;;;;5050502;28;20051;-78
2022/05/23 06:49:22;;;;;;;6.43;4.45;;;20.50;93.20;;;;;;5034261;28;20105;-79
2022/05/23 06:51:52;;;;;;;6.65;4.53;;;20.20;94.30;;;;;;5052205;28;20037;-78
2022/05/23 06:54:19;;;;;;;7.70;4.30;;;19.90;95.30;;;;;;5035628;28;20075;-79
2022/05/23 06:56:45;;;;;;;5.60;4.10;;;19.70;95.30;;;;;;5034023;28;20040;-78
2022/05/23 06:59:12;;;;;;;6.10;4.05;;;19.50;96.40;;;;;;5050202;28;20063;-78
2022/05/23 07:01:38;;;;;;;6.40;4.30;;;19.50;96.90;;;;;;5031396;28;20044;-77
2022/05/23 07:04:04;;;;;;;5.35;4.28;;;19.40;96.80;;;;;;5050135;28;20047;-77
2022/05/23 07:12:19;;;;;;;7.28;4.22;;;19.60;97.40;;;;;;5049609;28;20052;-77
2022/05/23 07:12:20;;;;;;;8.32;4.60;;;19.70;97.60;;;;;;5048321;28;20125;-79
2022/05/23 07:14:46;;;;;;;7.82;4.63;;;20.20;97.80;;;;;;5050378;28;20087;-80
2022/05/23 07:17:12;;;;;;;5.70;4.10;;;20.60;96.90;;;;;;5049942;28;20047;-80
2022/05/23 07:19:39;;;;;;;5.47;4.40;;;21.40;96.10;;;;;;5069898;28;20409;-81
2022/05/23 07:22:05;;;;;;;5.38;4.00;;;21.90;94.20;;;;;;5052707;28;20105;-81
2022/05/23 07:24:31;;;;;;;5.15;4.20;;;22.00;94.10;;;;;;5051863;28;20071;-76
2022/05/23 07:26:58;;;;;;;7.63;4.25;;;22.30;94.10;;;;;;5049880;28;20486;-76
2022/05/23 07:29:24;;;;;;;6.65;4.45;;;22.20;93.30;;;;;;5050869;28;20083;-76
2022/05/23 07:31:51;;;;;;;5.57;4.20;;;22.60;92.10;;;;;;5048787;28;20819;-77
2022/05/23 07:34:18;;;;;;;5.82;4.07;;;23.50;91.90;;;;;;5034656;28;20041;-77
2022/05/23 07:36:44;;;;;;;4.43;3.95;;;24.10;90.40;;;;;;5050136;28;20546;-77
2022/05/23 07:39:13;;;;;;;5.50;3.97;;;24.30;87.10;;;;;;5060006;28;20072;-78
2022/05/23 07:41:40;;;;;;;6.72;4.28;;;25.20;87.80;;;;;;5045512;28;20062;-79
2022/05/23 07:44:08;;;;;;;9.45;4.03;;;25.70;81.80;;;;;;5050157;28;20123;-78
2022/05/23 07:46:34;;;;;;;5.57;4.32;;;26.00;82.90;;;;;;5045518;28;20048;-78
2022/05/23 07:49:00;;;;;;;7.40;4.03;;;26.30;79.80;;;;;;5051220;28;20062;-78
2022/05/23 07:51:30;;;;;;;6.28;3.58;;;25.50;80.10;;;;;;5068813;28;20059;-77
2022/05/23 08:02:11;;;;;;;4.13;3.72;;;26.20;78.40;;;;;;5051746;28;20052;-77
2022/05/23 08:04:38;;;;;;;4.45;4.00;;;26.10;81.30;;;;;;5051229;28;20032;-75
2022/05/23 08:07:04;;;;;;;5.88;4.10;;;25.10;78.00;;;;;;5032035;28;20052;-74
2022/05/23 08:09:30;;;;;;;9.93;4.03;;;24.60;81.60;;;;;;5070010;28;20417;-74
2022/05/23 08:11:56;;;;;;;6.00;3.63;;;24.00;82.50;;;;;;5051166;28;20053;-74
2022/05/23 08:14:22;;;;;;;7.07;4.35;;;23.50;84.00;;;;;;5052187;28;20102;-74
2022/05/23 08:16:49;;;;;;;6.45;4.15;;;23.40;87.90;;;;;;5051590;28;20048;-75
2022/05/23 08:19:15;;;;;;;6.75;4.30;;;23.30;86.70;;;;;;5050100;28;20044;-75
2022/05/23 08:22:01;;;;;;;6.18;3.78;;;23.10;88.30;;;;;;5047538;28;20044;-75
2022/05/23 08:24:27;;;;;;;7.22;4.20;;;22.80;88.40;;;;;;5050851;28;20082;-75
2022/05/23 08:26:53;;;;;;;6.93;4.30;;;22.90;86.70;;;;;;5051911;28;20083;-76
2022/05/23 08:29:19;;;;;;;8.38;4.40;;;22.80;89.40;;;;;;5048278;28;20489;-75
2022/05/23 08:31:45;;;;;;;5.40;4.13;;;22.80;89.80;;;;;;5052294;28;20070;-75
2022/05/23 08:34:11;;;;;;;6.85;4.38;;;22.90;90.70;;;;;;5038877;28;20485;-75
2022/05/23 08:36:37;;;;;;;6.10;4.30;;;23.20;87.80;;;;;;5051900;28;20123;-75
2022/05/23 08:39:03;;;;;;;5.10;4.18;;;23.10;88.80;;;;;;5055739;28;20044;-75
2022/05/23 08:41:36;;;;;;;4.95;3.90;;;22.90;90.20;;;;;;5049188;28;20482;-75
2022/05/23 08:44:27;;;;;;;6.47;3.78;;;22.80;91.00;;;;;;5047488;28;20098;-75
2022/05/23 08:47:06;;;;;;;6.97;3.42;;;22.90;91.50;;;;;;5048198;28;20078;-75
2022/05/23 08:49:42;;;;;;;5.75;3.40;;;22.80;90.40;;;;;;5054969;28;20067;-75
2022/05/23 08:52:20;;;;;;;4.47;3.80;;;23.10;90.70;;;;;;5052646;28;20086;-75
2022/05/23 08:54:53;;;;;;;7.53;3.67;;;22.70;89.70;;;;;;5052881;28;20040;-75
2022/05/23 08:57:29;;;;;;;4.60;3.28;;;22.60;91.00;;;;;;5056207;28;20043;-75
2022/05/23 08:59:59;;;;;;;5.57;3.40;;;22.70;91.00;;;;;;5047719;28;20466;-75
2022/05/23 09:02:39;;;;;;;6.85;3.80;;;22.80;90.70;;;;;;5054200;28;20156;-75
2022/05/23 09:05:18;;;;;;;5.93;3.70;;;22.70;91.00;;;;;;5052790;28;20040;-75
2022/05/23 09:07:48;;;;;;;4.30;3.42;;;22.80;91.50;;;;;;5052692;28;20475;-75
2022/05/23 09:10:40;;;;;;;5.78;3.25;;;22.70;91.70;;;;;;5038946;28;20028;-75
2022/05/23 09:13:07;;;;;;;4.53;3.15;;;22.90;90.70;;;;;;5045211;28;20106;-75
2022/05/23 09:15:33;;;;;;;7.53;3.28;;;23.20;90.80;;;;;;5054637;28;20086;-75
2022/05/23 09:18:04;;;;;;;6.18;3.50;;;23.30;91.60;;;;;;5055314;28;20047;-75
2022/05/23 09:20:44;;;;;;;3.65;2.90;;;23.30;91.00;;;;;;5036699;28;20043;-75
2022/05/23 09:23:14;;;;;;;6.00;3.53;;;23.50;91.50;;;;;;5050080;28;20114;-75
2022/05/23 09:25:40;;;;;;;5.88;3.08;;;23.60;90.60;;;;;;5047929;28;20048;-75
2022/05/23 09:28:16;;;;;;;7.13;3.25;;;23.60;91.30;;;;;;5049770;28;20036;-74
2022/05/23 09:30:45;;;;;;;4.50;3.10;;;23.50;90.50;;;;;;5031652;28;20075;-76
2022/05/23 09:33:18;;;;;;;5.57;3.10;;;23.50;90.50;;;;;;5068205;28;20051;-75
2022/05/23 09:35:48;;;;;;;3.65;2.75;;;23.60;90.50;;;;;;5052479;28;20044;-75
2022/05/23 09:38:31;;;;;;;5.10;2.95;;;23.70;90.00;;;;;;5034477;28;20371;-75
2022/05/23 09:40:57;;;;;;;3.95;2.50;;;23.60;89.80;;;;;;5051735;28;20043;-75
2022/05/23 09:49:15;;;;;;;2.85;2.35;;;23.70;85.00;;;;;;5051459;28;20037;-75
2022/05/23 09:51:55;;;;;;;3.35;2.35;;;23.80;86.40;;;;;;5051072;28;20072;-75
2022/05/23 09:54:33;;;;;;;4.30;2.78;;;24.10;90.20;;;;;;5052004;28;20097;-75
2022/05/23 09:57:02;;;;;;;7.07;2.70;;;24.40;88.00;;;;;;5051301;28;20101;-75
2022/05/23 09:59:35;;;;;;;7.15;2.75;;;24.40;86.50;;;;;;5044746;28;20051;-75
2022/05/23 10:02:20;;;;;;;4.28;2.25;;;24.60;85.60;;;;;;5052596;28;20076;-75
2022/05/23 10:04:46;;;;;;;3.63;2.30;;;24.70;84.90;;;;;;5034399;28;20040;-76
2022/05/23 10:07:21;;;;;;;4.20;2.35;;;24.70;82.50;;;;;;5052308;28;20052;-75
2022/05/23 10:10:03;;;;;;;4.63;2.38;;;24.80;82.00;;;;;;5050388;28;20080;-75
2022/05/23 10:12:30;;;;;;;;;;;24.80;81.70;;;;;;5050562;28;20037;-75
2022/05/23 10:15:09;;;;;;;4.75;2.20;;;24.70;81.60;;;;;;5033697;28;19920;-75
2022/05/23 10:17:38;;;;;;;3.13;1.80;;;24.40;81.80;;;;;;5047887;28;20050;-75
2022/05/23 10:20:28;;;;;;;4.82;2.30;;;24.70;82.40;;;;;;5050888;28;20052;-75
2022/05/23 10:22:59;;;;;;;2.58;1.92;;;24.70;82.80;;;;;;5032767;28;20486;-75
2022/05/23 10:25:27;;;;;;;3.30;1.75;;;24.70;78.40;;;;;;5053383;28;20093;-75
2022/05/23 10:27:59;;;;;;;3.53;2.33;;;24.90;81.50;;;;;;5051154;28;20045;-75
2022/05/23 10:30:30;;;;;;;5.10;1.90;;;24.90;81.50;;;;;;5051171;28;20560;-75
2022/05/23 10:33:03;;;;;;;3.97;2.05;;;25.00;79.60;;;;;;5049376;28;20099;-75
2022/05/23 10:36:02;;;;;;;4.40;2.25;;;25.00;79.20;;;;;;5050153;28;20126;-75
2022/05/23 10:44:14;;;;;;;2.97;1.70;;;25.20;78.80;;;;;;5049120;28;20119;-75
2022/05/23 10:46:44;;;;;;;3.22;2.38;;;25.00;76.50;;;;;;5032853;28;20032;-75
2022/05/23 10:49:40;;;;;;;3.08;2.10;;;25.00;77.00;;;;;;5032959;28;20041;-75
2022/05/23 10:52:25;;;;;;;3.60;2.30;;;25.00;79.00;;;;;;5053684;28;20056;-75
2022/05/23 10:55:11;;;;;;;5.57;2.05;;;25.10;77.80;;;;;;5036605;28;20048;-74
2022/05/23 10:58:04;;;;;;;5.18;2.30;;;25.20;76.10;;;;;;5036891;28;20086;-74
2022/05/23 11:00:36;;;;;;;3.47;2.42;;;25.10;78.90;;;;;;5033259;28;20561;-75
2022/05/23 11:03:35;;;;;;;4.85;2.20;;;24.90;78.70;;;;;;5023632;28;20492;-75
2022/05/23 11:06:13;;;;;;;3.75;2.58;;;24.90;77.20;;;;;;5031332;28;20533;-74
2022/05/23 11:09:26;;;;;;;4.00;1.90;;;25.00;77.30;;;;;;5051693;28;20497;-75
2022/05/23 11:12:07;;;;;;;4.95;2.60;;;25.20;79.10;;;;;;5046942;28;20119;-75
2022/05/23 11:14:54;;;;;;;4.57;2.28;;;25.40;79.70;;;;;;5028621;28;21826;-75
2022/05/23 11:17:32;;;;;;;4.28;2.50;;;25.50;77.60;;;;;;5052473;28;20072;-75
2022/05/23 11:20:09;;;;;;;3.60;2.20;;;25.50;76.20;;;;;;5051478;28;20052;-75
2022/05/23 11:22:45;;;;;;;3.35;2.35;;;25.50;77.50;;;;;;5077416;22;20047;-72
2022/05/23 11:25:33;;;;;;;4.60;2.55;;;25.30;75.00;;;;;;5049681;28;20044;-72
2022/05/23 11:34:21;;;;;;;4.32;1.98;;;25.30;75.60;;;;;;5048270;28;20686;-71
2022/05/23 11:36:57;;;;;;;3.88;2.00;;;25.20;74.90;;;;;;5051670;28;21490;-71
2022/05/23 11:39:47;;;;;;;3.17;2.05;;;25.40;76.70;;;;;;5039962;28;20090;-72
2022/05/23 11:42:16;;;;;;;4.22;1.92;;;25.30;75.30;;;;;;5033369;28;20648;-72
2022/05/23 11:44:42;;;;;;;6.32;1.98;;;25.40;75.30;;;;;;5051457;28;20148;-72
2022/05/23 11:47:21;;;;;;;2.90;1.60;;;25.50;73.80;;;;;;5051689;28;20146;-71
2022/05/23 11:50:13;;;;;;;2.13;1.50;;;25.70;75.80;;;;;;5058943;28;20033;-72
2022/05/23 11:52:47;;;;;;;3.38;2.15;;;25.80;72.80;;;;;;5040832;28;20486;-72
2022/05/23 11:55:50;;;;;;;2.67;1.77;;;25.80;75.20;;;;;;5050943;28;20036;-72
2022/05/23 11:58:21;;;;;;;3.35;1.95;;;25.70;72.20;;;;;;5051166;28;20508;-72
2022/05/23 12:01:07;;;;;;;2.27;1.97;;;25.60;74.60;;;;;;5048673;28;20090;-71
2022/05/23 12:03:50;;;;;;;1.85;1.60;;;25.60;74.10;;;;;;5032538;28;20406;-71
2022/05/23 12:06:17;;;;;;;2.10;1.75;;;25.90;75.00;;;;;;5043992;28;20080;-73
2022/05/23 12:09:22;;;;;;;4.05;1.92;;;26.00;75.20;;;;;;5041422;28;20166;-72
2022/05/23 12:11:51;;;;;;;5.32;2.47;;;26.00;75.40;;;;;;5058863;28;20382;-72
2022/05/23 12:14:21;;;;;;;3.28;1.92;;;25.80;73.70;;;;;;5049625;28;20048;-72
2022/05/23 12:16:56;;;;;;;3.10;1.98;;;26.10;73.90;;;;;;5049589;28;20047;-72
2022/05/23 12:19:33;;;;;;;4.07;2.13;;;26.00;73.50;;;;;;5044758;28;20087;-72
2022/05/23 12:22:22;;;;;;;3.13;2.28;;;26.10;74.30;;;;;;5045835;28;20366;-72
2022/05/23 12:25:08;;;;;;;3.05;2.20;;;26.10;73.50;;;;;;5045534;28;20080;-72
2022/05/23 12:27:45;;;;;;;3.45;2.10;;;26.00;72.30;;;;;;5049774;28;20382;-73
2022/05/23 12:30:16;;;;;;;4.15;2.03;;;26.20;73.30;;;;;;5050675;28;20457;-72
2022/05/23 12:33:02;;;;;;;2.92;2.03;;;26.40;74.80;;;;;;5049960;28;20040;-72
2022/05/23 12:35:40;;;;;;;5.43;2.45;;;26.50;72.00;;;;;;5037076;28;20052;-72
2022/05/23 12:38:08;;;;;;;2.97;1.90;;;26.40;73.60;;;;;;5047092;28;20085;-72
2022/05/23 12:40:56;;;;;;;4.50;2.38;;;26.40;74.30;;;;;;5049905;28;20041;-73
2022/05/23 12:43:49;;;;;;;6.95;2.30;;;26.20;73.90;;;;;;5051486;28;20664;-72
2022/05/23 12:47:01;;;;;;;5.00;2.10;;;26.00;75.20;;;;;;5056096;28;20036;-72
2022/05/23 12:49:50;;;;;;;3.50;1.75;;;25.80;75.80;;;;;;5050038;28;20115;-72
2022/05/23 12:52:24;;;;;;;4.00;1.70;;;25.80;75.60;;;;;;5052293;28;20045;-72
2022/05/23 12:55:05;;;;;;;5.35;2.00;;;25.90;76.20;;;;;;5047990;28;20416;-73
2022/05/23 12:57:54;;;;;;;2.20;1.63;;;25.90;75.80;;;;;;5035647;28;20033;-72
2022/05/23 13:00:22;;;;;;;3.25;1.98;;;26.00;75.80;;;;;;5044600;28;20672;-72
2022/05/23 13:03:07;;;;;;;3.08;1.70;;;26.10;74.90;;;;;;5067483;28;20127;-72
2022/05/23 13:05:46;;;;;;;4.20;2.00;;;26.20;76.20;;;;;;5035099;28;20090;-72
2022/05/23 13:08:19;;;;;;;3.08;2.00;;;26.30;74.10;;;;;;5059953;28;20045;-72
2022/05/23 13:10:50;;;;;;;2.58;1.75;;;26.50;76.00;;;;;;5032504;28;20055;-72
2022/05/23 13:13:15;;;;;;;;;;;26.60;76.00;;;;;;5051198;28;20076;-72
2022/05/23 13:15:41;;;;;;;3.88;2.20;;;26.80;74.30;;;;;;5034708;28;20250;-71
2022/05/23 13:23:38;;;;;;;5.15;2.20;;;26.70;73.20;;;;;;5050285;28;20053;-73
2022/05/23 13:26:09;;;;;;;3.08;2.25;;;26.50;73.10;;;;;;5028396;28;20053;-73
2022/05/23 13:28:50;;;;;;;4.07;2.42;;;26.00;72.90;;;;;;5050216;28;20041;-73
2022/05/23 13:31:34;;;;;;;5.35;2.60;;;25.90;76.20;;;;;;5049439;28;20112;-72
2022/05/23 13:34:00;;;;;;;4.88;2.42;;;25.80;78.20;;;;;;5048355;28;20032;-72
2022/05/23 13:36:38;;;;;;;4.93;2.80;;;25.60;80.50;;;;;;5050591;28;20120;-73
2022/05/23 13:39:09;;;;;;;6.03;2.40;;;25.60;82.00;;;;;;5049160;28;20049;-73
2022/05/23 13:41:34;;;;;;;3.83;2.50;;;25.50;81.20;;;;;;5049207;28;20756;-72
2022/05/23 13:44:00;;;;;;;4.13;2.00;;;25.40;82.30;;;;;;5031210;28;20072;-73
2022/05/23 13:46:37;;;;;;;5.38;2.28;;;25.40;81.40;;;;;;5046409;28;20371;-73
2022/05/23 13:49:15;;;;;;;6.30;2.80;;;25.40;80.30;;;;;;5049503;28;20402;-73
2022/05/23 13:52:03;;;;;;;3.95;2.25;;;25.50;81.10;;;;;;5050977;28;20044;-72
2022/05/23 13:54:50;;;;;;;5.13;2.42;;;25.50;79.60;;;;;;5021999;28;20052;-72
2022/05/23 13:57:31;;;;;;;4.47;2.30;;;25.40;78.90;;;;;;5025678;28;20040;-72
2022/05/23 14:00:14;;;;;;;7.10;2.93;;;25.40;79.00;;;;;;5047578;28;20048;-72
2022/05/23 14:02:51;;;;;;;5.10;2.40;;;25.30;80.40;;;;;;5047892;28;20052;-72
2022/05/23 14:05:20;;;;;;;5.88;2.40;;;25.20;79.00;;;;;;5029427;28;20077;-72
2022/05/23 14:07:46;;;;;;;5.13;2.78;;;25.00;79.80;;;;;;5047948;28;20032;-72